sensor_id;sensor_type;location;lat;lon;timestamp;temperature;humidity
44229;DHT22;29904;51.058;5.378;2022-10-30T00:00:41;17.20;99.90
44229;DHT22;29904;51.058;5.378;2022-10-30T00:03:16;17.10;99.90
44229;DHT22;29904;51.058;5.378;2022-10-30T00:05:44;17.00;99.90
44229;DHT22;29904;51.058;5.378;2022-10-30T00:08:12;17.00;99.90
44229;DHT22;29904;51.058;5.378;2022-10-30T00:10:39;16.90;99.90
44229;DHT22;29904;51.058;5.378;2022-10-30T00:13:04;16.80;99.90
44229;DHT22;29904;51.058;5.378;2022-10-30T00:15:30;16.70;99.90
44229;DHT22;29904;51.058;5.378;2022-10-30T00:17:56;16.70;99.90
44229;DHT22;29904;51.058;5.378;2022-10-30T00:20:22;16.70;99.90
44229;DHT22;29904;51.058;5.378;2022-10-30T00:22:47;16.60;99.90
44229;DHT22;29904;51.058;5.378;2022-10-30T00:25:13;16.50;99.90
44229;DHT22;29904;51.058;5.378;2022-10-30T00:27:41;16.50;99.90
44229;DHT22;29904;51.058;5.378;2022-10-30T00:30:07;16.40;99.90
44229;DHT22;29904;51.058;5.378;2022-10-30T00:32:33;16.30;99.90
44229;DHT22;29904;51.058;5.378;2022-10-30T00:34:59;16.20;99.90
44229;DHT22;29904;51.058;5.378;2022-10-30T00:37:25;16.10;99.90
44229;DHT22;29904;51.058;5.378;2022-10-30T00:39:50;16.10;99.90
44229;DHT22;29904;51.058;5.378;2022-10-30T00:42:16;16.00;99.90
44229;DHT22;29904;51.058;5.378;2022-10-30T00:44:50;15.90;99.90
44229;DHT22;29904;51.058;5.378;2022-10-30T00:47:24;15.80;99.90
44229;DHT22;29904;51.058;5.378;2022-10-30T00:49:56;15.70;99.90
44229;DHT22;29904;51.058;5.378;2022-10-30T00:52:26;15.70;99.90
44229;DHT22;29904;51.058;5.378;2022-10-30T00:54:56;15.70;99.90
44229;DHT22;29904;51.058;5.378;2022-10-30T00:57:23;15.60;99.90
44229;DHT22;29904;51.058;5.378;2022-10-30T00:59:50;15.50;99.90
44229;DHT22;29904;51.058;5.378;2022-10-30T01:02:17;15.40;99.90
44229;DHT22;29904;51.058;5.378;2022-10-30T01:04:45;15.30;99.90
44229;DHT22;29904;51.058;5.378;2022-10-30T01:07:14;15.30;99.90
44229;DHT22;29904;51.058;5.378;2022-10-30T01:09:40;15.30;99.90
44229;DHT22;29904;51.058;5.378;2022-10-30T01:12:07;15.20;99.90
44229;DHT22;29904;51.058;5.378;2022-10-30T01:14:36;15.20;99.90
44229;DHT22;29904;51.058;5.378;2022-10-30T01:20:06;15.10;99.90
44229;DHT22;29904;51.058;5.378;2022-10-30T01:23:08;15.10;99.90
44229;DHT22;29904;51.058;5.378;2022-10-30T01:31:32;15.00;99.90
44229;DHT22;29904;51.058;5.378;2022-10-30T01:39:37;14.90;99.90
44229;DHT22;29904;51.058;5.378;2022-10-30T01:42:10;14.90;99.90
44229;DHT22;29904;51.058;5.378;2022-10-30T01:44:55;14.90;99.90
44229;DHT22;29904;51.058;5.378;2022-10-30T01:58:34;14.70;99.90
44229;DHT22;29904;51.058;5.378;2022-10-30T02:01:01;14.70;99.90
44229;DHT22;29904;51.058;5.378;2022-10-30T02:03:27;14.60;99.90
44229;DHT22;29904;51.058;5.378;2022-10-30T02:05:53;14.60;99.90
44229;DHT22;29904;51.058;5.378;2022-10-30T02:08:20;14.50;99.90
44229;DHT22;29904;51.058;5.378;2022-10-30T02:10:48;14.50;99.90
44229;DHT22;29904;51.058;5.378;2022-10-30T02:13:14;14.50;99.90
44229;DHT22;29904;51.058;5.378;2022-10-30T02:15:41;14.40;99.90
44229;DHT22;29904;51.058;5.378;2022-10-30T02:18:10;14.40;99.90
44229;DHT22;29904;51.058;5.378;2022-10-30T02:20:36;14.40;99.90
44229;DHT22;29904;51.058;5.378;2022-10-30T02:23:02;14.40;99.90
44229;DHT22;29904;51.058;5.378;2022-10-30T02:25:28;14.40;99.90
44229;DHT22;29904;51.058;5.378;2022-10-30T02:27:54;14.40;99.90
44229;DHT22;29904;51.058;5.378;2022-10-30T02:30:20;14.40;99.90
44229;DHT22;29904;51.058;5.378;2022-10-30T02:32:46;14.30;99.90
44229;DHT22;29904;51.058;5.378;2022-10-30T02:35:12;14.30;99.90
44229;DHT22;29904;51.058;5.378;2022-10-30T02:37:37;14.30;99.90
44229;DHT22;29904;51.058;5.378;2022-10-30T02:40:05;14.30;99.90
44229;DHT22;29904;51.058;5.378;2022-10-30T02:42:34;14.30;99.90
44229;DHT22;29904;51.058;5.378;2022-10-30T02:45:00;14.20;99.90
44229;DHT22;29904;51.058;5.378;2022-10-30T02:47:27;14.10;99.90
44229;DHT22;29904;51.058;5.378;2022-10-30T02:49:53;14.10;99.90
44229;DHT22;29904;51.058;5.378;2022-10-30T02:52:19;14.10;99.90
44229;DHT22;29904;51.058;5.378;2022-10-30T02:54:44;14.10;99.90
44229;DHT22;29904;51.058;5.378;2022-10-30T02:57:12;14.10;99.90
44229;DHT22;29904;51.058;5.378;2022-10-30T02:59:38;14.00;99.90
44229;DHT22;29904;51.058;5.378;2022-10-30T03:02:03;14.00;99.90
44229;DHT22;29904;51.058;5.378;2022-10-30T03:04:29;14.00;99.90
44229;DHT22;29904;51.058;5.378;2022-10-30T03:06:55;13.90;99.90
44229;DHT22;29904;51.058;5.378;2022-10-30T03:09:21;14.00;99.90
44229;DHT22;29904;51.058;5.378;2022-10-30T03:11:48;14.00;99.90
44229;DHT22;29904;51.058;5.378;2022-10-30T03:14:14;14.00;99.90
44229;DHT22;29904;51.058;5.378;2022-10-30T03:16:40;14.00;99.90
44229;DHT22;29904;51.058;5.378;2022-10-30T03:19:07;14.00;99.90
44229;DHT22;29904;51.058;5.378;2022-10-30T03:21:34;14.00;99.90
44229;DHT22;29904;51.058;5.378;2022-10-30T03:23:59;14.00;99.90
44229;DHT22;29904;51.058;5.378;2022-10-30T03:26:25;13.90;99.90
44229;DHT22;29904;51.058;5.378;2022-10-30T03:28:51;13.90;99.90
44229;DHT22;29904;51.058;5.378;2022-10-30T03:31:18;13.90;99.90
44229;DHT22;29904;51.058;5.378;2022-10-30T03:33:44;14.00;99.90
44229;DHT22;29904;51.058;5.378;2022-10-30T03:36:13;14.00;99.90
44229;DHT22;29904;51.058;5.378;2022-10-30T03:38:39;14.00;99.90
44229;DHT22;29904;51.058;5.378;2022-10-30T03:41:05;14.10;99.90
44229;DHT22;29904;51.058;5.378;2022-10-30T03:43:35;14.10;99.90
44229;DHT22;29904;51.058;5.378;2022-10-30T03:46:00;14.10;99.90
44229;DHT22;29904;51.058;5.378;2022-10-30T03:48:27;14.10;99.90
44229;DHT22;29904;51.058;5.378;2022-10-30T03:50:55;14.10;99.90
44229;DHT22;29904;51.058;5.378;2022-10-30T03:53:21;14.10;99.90
44229;DHT22;29904;51.058;5.378;2022-10-30T03:55:49;14.10;99.90
44229;DHT22;29904;51.058;5.378;2022-10-30T03:58:15;14.20;99.90
44229;DHT22;29904;51.058;5.378;2022-10-30T04:00:40;14.20;99.90
44229;DHT22;29904;51.058;5.378;2022-10-30T04:03:07;14.20;99.90
44229;DHT22;29904;51.058;5.378;2022-10-30T04:05:36;14.20;99.90
44229;DHT22;29904;51.058;5.378;2022-10-30T04:08:04;14.10;99.90
44229;DHT22;29904;51.058;5.378;2022-10-30T04:10:32;14.10;99.90
44229;DHT22;29904;51.058;5.378;2022-10-30T04:13:05;14.00;99.90
44229;DHT22;29904;51.058;5.378;2022-10-30T04:15:32;14.00;99.90
44229;DHT22;29904;51.058;5.378;2022-10-30T04:17:58;14.00;99.90
44229;DHT22;29904;51.058;5.378;2022-10-30T04:20:26;13.90;99.90
44229;DHT22;29904;51.058;5.378;2022-10-30T04:23:01;13.90;99.90
44229;DHT22;29904;51.058;5.378;2022-10-30T04:25:30;13.80;99.90
44229;DHT22;29904;51.058;5.378;2022-10-30T04:27:56;13.80;99.90
44229;DHT22;29904;51.058;5.378;2022-10-30T04:30:22;13.80;99.90
44229;DHT22;29904;51.058;5.378;2022-10-30T04:32:54;13.80;99.90
44229;DHT22;29904;51.058;5.378;2022-10-30T04:35:23;13.70;99.90
44229;DHT22;29904;51.058;5.378;2022-10-30T04:40:22;13.70;99.90
44229;DHT22;29904;51.058;5.378;2022-10-30T04:42:48;13.70;99.90
44229;DHT22;29904;51.058;5.378;2022-10-30T04:45:16;13.80;99.90
44229;DHT22;29904;51.058;5.378;2022-10-30T04:47:42;13.80;99.90
44229;DHT22;29904;51.058;5.378;2022-10-30T04:50:08;13.80;99.90
44229;DHT22;29904;51.058;5.378;2022-10-30T04:52:34;13.70;99.90
44229;DHT22;29904;51.058;5.378;2022-10-30T04:55:00;13.70;99.90
44229;DHT22;29904;51.058;5.378;2022-10-30T04:57:26;13.70;99.90
44229;DHT22;29904;51.058;5.378;2022-10-30T04:59:52;13.70;99.90
44229;DHT22;29904;51.058;5.378;2022-10-30T05:02:19;13.70;99.90
44229;DHT22;29904;51.058;5.378;2022-10-30T05:04:45;13.70;99.90
44229;DHT22;29904;51.058;5.378;2022-10-30T05:07:11;13.60;99.90
44229;DHT22;29904;51.058;5.378;2022-10-30T05:09:37;13.50;99.90
44229;DHT22;29904;51.058;5.378;2022-10-30T05:12:03;13.50;99.90
44229;DHT22;29904;51.058;5.378;2022-10-30T05:14:31;13.60;99.90
44229;DHT22;29904;51.058;5.378;2022-10-30T05:16:56;13.60;99.90
44229;DHT22;29904;51.058;5.378;2022-10-30T05:19:22;13.60;99.90
44229;DHT22;29904;51.058;5.378;2022-10-30T05:21:48;13.50;99.90
44229;DHT22;29904;51.058;5.378;2022-10-30T05:24:14;13.40;99.90
44229;DHT22;29904;51.058;5.378;2022-10-30T05:26:41;13.40;99.90
44229;DHT22;29904;51.058;5.378;2022-10-30T05:29:07;13.40;99.90
44229;DHT22;29904;51.058;5.378;2022-10-30T05:31:33;13.30;99.90
44229;DHT22;29904;51.058;5.378;2022-10-30T05:34:00;13.30;99.90
44229;DHT22;29904;51.058;5.378;2022-10-30T05:36:26;13.20;99.90
44229;DHT22;29904;51.058;5.378;2022-10-30T05:38:52;13.20;99.90
44229;DHT22;29904;51.058;5.378;2022-10-30T05:41:18;13.10;99.90
44229;DHT22;29904;51.058;5.378;2022-10-30T05:43:43;13.10;99.90
44229;DHT22;29904;51.058;5.378;2022-10-30T05:46:11;13.10;99.90
44229;DHT22;29904;51.058;5.378;2022-10-30T05:48:38;13.10;99.90
44229;DHT22;29904;51.058;5.378;2022-10-30T05:51:04;13.00;99.90
44229;DHT22;29904;51.058;5.378;2022-10-30T05:53:31;12.90;99.90
44229;DHT22;29904;51.058;5.378;2022-10-30T05:55:57;12.90;99.90
44229;DHT22;29904;51.058;5.378;2022-10-30T05:58:23;12.90;99.90
44229;DHT22;29904;51.058;5.378;2022-10-30T06:00:49;12.90;99.90
44229;DHT22;29904;51.058;5.378;2022-10-30T06:03:14;12.90;99.90
44229;DHT22;29904;51.058;5.378;2022-10-30T06:05:43;12.90;99.90
44229;DHT22;29904;51.058;5.378;2022-10-30T06:08:09;12.90;99.90
44229;DHT22;29904;51.058;5.378;2022-10-30T06:10:35;12.90;99.90
44229;DHT22;29904;51.058;5.378;2022-10-30T06:13:03;12.90;99.90
44229;DHT22;29904;51.058;5.378;2022-10-30T06:15:30;12.90;99.90
44229;DHT22;29904;51.058;5.378;2022-10-30T06:17:57;13.00;99.90
44229;DHT22;29904;51.058;5.378;2022-10-30T06:20:25;13.00;99.90
44229;DHT22;29904;51.058;5.378;2022-10-30T06:22:58;13.00;99.90
44229;DHT22;29904;51.058;5.378;2022-10-30T06:25:26;13.10;99.90
44229;DHT22;29904;51.058;5.378;2022-10-30T06:27:52;13.00;99.90
44229;DHT22;29904;51.058;5.378;2022-10-30T06:30:18;13.00;99.90
44229;DHT22;29904;51.058;5.378;2022-10-30T06:32:44;13.00;99.90
44229;DHT22;29904;51.058;5.378;2022-10-30T06:35:10;12.90;99.90
44229;DHT22;29904;51.058;5.378;2022-10-30T06:37:36;12.90;99.90
44229;DHT22;29904;51.058;5.378;2022-10-30T06:40:07;12.90;99.90
44229;DHT22;29904;51.058;5.378;2022-10-30T06:42:41;12.80;99.90
44229;DHT22;29904;51.058;5.378;2022-10-30T06:45:07;12.80;99.90
44229;DHT22;29904;51.058;5.378;2022-10-30T06:47:36;12.80;99.90
44229;DHT22;29904;51.058;5.378;2022-10-30T06:50:05;12.80;99.90
44229;DHT22;29904;51.058;5.378;2022-10-30T06:52:31;12.80;99.90
44229;DHT22;29904;51.058;5.378;2022-10-30T06:54:57;12.80;99.90
44229;DHT22;29904;51.058;5.378;2022-10-30T06:57:25;12.80;99.90
44229;DHT22;29904;51.058;5.378;2022-10-30T06:59:50;12.80;99.90
44229;DHT22;29904;51.058;5.378;2022-10-30T07:02:16;12.90;99.90
44229;DHT22;29904;51.058;5.378;2022-10-30T07:04:43;12.90;99.90
44229;DHT22;29904;51.058;5.378;2022-10-30T07:07:11;12.90;99.90
44229;DHT22;29904;51.058;5.378;2022-10-30T07:09:36;12.90;99.90
44229;DHT22;29904;51.058;5.378;2022-10-30T07:12:04;13.00;99.90
44229;DHT22;29904;51.058;5.378;2022-10-30T07:14:30;13.10;99.90
44229;DHT22;29904;51.058;5.378;2022-10-30T07:16:56;13.10;99.90
44229;DHT22;29904;51.058;5.378;2022-10-30T07:19:22;13.10;99.90
44229;DHT22;29904;51.058;5.378;2022-10-30T07:21:48;13.10;99.90
44229;DHT22;29904;51.058;5.378;2022-10-30T07:24:14;13.20;99.90
44229;DHT22;29904;51.058;5.378;2022-10-30T07:26:39;13.30;99.90
44229;DHT22;29904;51.058;5.378;2022-10-30T07:29:05;13.30;99.90
44229;DHT22;29904;51.058;5.378;2022-10-30T07:31:33;13.30;99.90
44229;DHT22;29904;51.058;5.378;2022-10-30T07:34:01;13.40;99.90
44229;DHT22;29904;51.058;5.378;2022-10-30T07:36:26;13.40;99.90
44229;DHT22;29904;51.058;5.378;2022-10-30T07:38:52;13.40;99.90
44229;DHT22;29904;51.058;5.378;2022-10-30T07:41:18;13.50;99.90
44229;DHT22;29904;51.058;5.378;2022-10-30T07:43:45;13.50;99.90
44229;DHT22;29904;51.058;5.378;2022-10-30T07:46:11;13.60;99.90
44229;DHT22;29904;51.058;5.378;2022-10-30T07:48:37;13.70;99.90
44229;DHT22;29904;51.058;5.378;2022-10-30T07:51:03;13.80;99.90
44229;DHT22;29904;51.058;5.378;2022-10-30T07:53:29;13.90;99.90
44229;DHT22;29904;51.058;5.378;2022-10-30T07:55:55;14.00;99.90
44229;DHT22;29904;51.058;5.378;2022-10-30T07:58:21;14.10;99.90
44229;DHT22;29904;51.058;5.378;2022-10-30T08:00:46;14.20;99.90
44229;DHT22;29904;51.058;5.378;2022-10-30T08:03:14;14.40;99.90
44229;DHT22;29904;51.058;5.378;2022-10-30T08:05:40;14.50;99.90
44229;DHT22;29904;51.058;5.378;2022-10-30T08:08:07;14.60;99.90
44229;DHT22;29904;51.058;5.378;2022-10-30T08:10:35;14.80;99.90
44229;DHT22;29904;51.058;5.378;2022-10-30T08:13:01;14.90;99.90
44229;DHT22;29904;51.058;5.378;2022-10-30T08:15:27;15.00;99.90
44229;DHT22;29904;51.058;5.378;2022-10-30T08:17:55;15.10;99.90
44229;DHT22;29904;51.058;5.378;2022-10-30T08:20:22;15.20;99.90
44229;DHT22;29904;51.058;5.378;2022-10-30T08:22:50;15.30;99.90
44229;DHT22;29904;51.058;5.378;2022-10-30T08:25:18;15.50;99.90
44229;DHT22;29904;51.058;5.378;2022-10-30T08:28:01;15.60;99.90
44229;DHT22;29904;51.058;5.378;2022-10-30T08:30:30;15.70;99.90
44229;DHT22;29904;51.058;5.378;2022-10-30T08:33:01;15.70;99.90
44229;DHT22;29904;51.058;5.378;2022-10-30T08:35:27;15.80;99.90
44229;DHT22;29904;51.058;5.378;2022-10-30T08:37:57;15.90;99.90
44229;DHT22;29904;51.058;5.378;2022-10-30T08:40:25;15.90;99.90
44229;DHT22;29904;51.058;5.378;2022-10-30T08:42:53;16.00;99.90
44229;DHT22;29904;51.058;5.378;2022-10-30T08:45:19;16.10;99.90
44229;DHT22;29904;51.058;5.378;2022-10-30T08:47:45;16.10;99.90
44229;DHT22;29904;51.058;5.378;2022-10-30T08:50:13;16.20;99.90
44229;DHT22;29904;51.058;5.378;2022-10-30T08:52:39;16.30;99.90
44229;DHT22;29904;51.058;5.378;2022-10-30T08:55:05;16.40;99.90
44229;DHT22;29904;51.058;5.378;2022-10-30T08:57:36;16.50;99.90
44229;DHT22;29904;51.058;5.378;2022-10-30T09:00:06;16.60;99.90
44229;DHT22;29904;51.058;5.378;2022-10-30T09:02:33;16.60;99.90
44229;DHT22;29904;51.058;5.378;2022-10-30T09:04:58;16.80;99.90
44229;DHT22;29904;51.058;5.378;2022-10-30T09:07:26;16.80;99.90
44229;DHT22;29904;51.058;5.378;2022-10-30T09:09:53;16.90;99.90
44229;DHT22;29904;51.058;5.378;2022-10-30T09:12:19;17.00;99.90
44229;DHT22;29904;51.058;5.378;2022-10-30T09:14:45;17.10;99.90
44229;DHT22;29904;51.058;5.378;2022-10-30T09:17:11;17.20;99.90
44229;DHT22;29904;51.058;5.378;2022-10-30T09:19:36;17.40;99.90
44229;DHT22;29904;51.058;5.378;2022-10-30T09:22:04;17.50;99.90
44229;DHT22;29904;51.058;5.378;2022-10-30T09:24:32;17.70;99.90
44229;DHT22;29904;51.058;5.378;2022-10-30T09:26:57;17.80;99.90
44229;DHT22;29904;51.058;5.378;2022-10-30T09:29:23;18.00;99.90
44229;DHT22;29904;51.058;5.378;2022-10-30T09:31:49;18.10;99.90
44229;DHT22;29904;51.058;5.378;2022-10-30T09:34:14;18.30;99.90
44229;DHT22;29904;51.058;5.378;2022-10-30T09:36:42;18.50;99.90
44229;DHT22;29904;51.058;5.378;2022-10-30T09:39:09;18.70;99.90
44229;DHT22;29904;51.058;5.378;2022-10-30T09:52:56;19.00;99.90
44229;DHT22;29904;51.058;5.378;2022-10-30T09:55:50;19.10;99.90
44229;DHT22;29904;51.058;5.378;2022-10-30T09:58:27;19.10;99.90
44229;DHT22;29904;51.058;5.378;2022-10-30T10:01:20;19.20;99.90
44229;DHT22;29904;51.058;5.378;2022-10-30T10:06:29;19.30;99.90
44229;DHT22;29904;51.058;5.378;2022-10-30T10:09:03;19.30;99.90
44229;DHT22;29904;51.058;5.378;2022-10-30T10:11:39;19.40;99.90
44229;DHT22;29904;51.058;5.378;2022-10-30T10:14:20;19.40;99.90
44229;DHT22;29904;51.058;5.378;2022-10-30T10:16:51;19.40;99.90
44229;DHT22;29904;51.058;5.378;2022-10-30T10:25:04;19.40;99.90
44229;DHT22;29904;51.058;5.378;2022-10-30T10:30:23;19.60;99.90
44229;DHT22;29904;51.058;5.378;2022-10-30T10:33:09;19.70;99.90
44229;DHT22;29904;51.058;5.378;2022-10-30T10:41:13;19.80;99.90
44229;DHT22;29904;51.058;5.378;2022-10-30T10:49:44;20.00;99.90
44229;DHT22;29904;51.058;5.378;2022-10-30T10:52:14;20.10;99.90
44229;DHT22;29904;51.058;5.378;2022-10-30T10:54:45;20.20;99.90
44229;DHT22;29904;51.058;5.378;2022-10-30T10:57:26;20.30;99.90
44229;DHT22;29904;51.058;5.378;2022-10-30T11:00:07;20.30;99.90
44229;DHT22;29904;51.058;5.378;2022-10-30T11:03:08;20.30;99.90
44229;DHT22;29904;51.058;5.378;2022-10-30T11:08:28;20.40;99.90
44229;DHT22;29904;51.058;5.378;2022-10-30T11:11:02;20.50;99.90
44229;DHT22;29904;51.058;5.378;2022-10-30T11:13:35;20.60;99.90
44229;DHT22;29904;51.058;5.378;2022-10-30T11:18:41;20.80;99.90
44229;DHT22;29904;51.058;5.378;2022-10-30T11:21:16;20.80;99.90
44229;DHT22;29904;51.058;5.378;2022-10-30T11:23:45;20.90;99.90
44229;DHT22;29904;51.058;5.378;2022-10-30T11:29:11;21.00;99.90
44229;DHT22;29904;51.058;5.378;2022-10-30T11:31:40;21.00;99.90
44229;DHT22;29904;51.058;5.378;2022-10-30T11:36:48;21.20;99.90
44229;DHT22;29904;51.058;5.378;2022-10-30T11:39:20;21.30;99.90
44229;DHT22;29904;51.058;5.378;2022-10-30T11:44:40;21.40;99.90
44229;DHT22;29904;51.058;5.378;2022-10-30T11:47:06;21.50;99.90
44229;DHT22;29904;51.058;5.378;2022-10-30T11:52:13;21.60;99.90
44229;DHT22;29904;51.058;5.378;2022-10-30T11:54:42;21.60;99.90
44229;DHT22;29904;51.058;5.378;2022-10-30T12:00:00;21.60;99.90
44229;DHT22;29904;51.058;5.378;2022-10-30T12:02:28;21.70;99.90
44229;DHT22;29904;51.058;5.378;2022-10-30T12:10:31;21.80;99.90
44229;DHT22;29904;51.058;5.378;2022-10-30T12:13:03;22.00;99.90
44229;DHT22;29904;51.058;5.378;2022-10-30T12:15:34;22.10;99.90
44229;DHT22;29904;51.058;5.378;2022-10-30T12:18:03;22.20;99.90
44229;DHT22;29904;51.058;5.378;2022-10-30T12:20:30;22.30;99.90
44229;DHT22;29904;51.058;5.378;2022-10-30T12:22:56;22.30;99.90
44229;DHT22;29904;51.058;5.378;2022-10-30T12:25:30;22.30;99.90
44229;DHT22;29904;51.058;5.378;2022-10-30T12:28:11;22.40;99.90
44229;DHT22;29904;51.058;5.378;2022-10-30T12:31:08;22.40;99.90
44229;DHT22;29904;51.058;5.378;2022-10-30T12:36:27;22.70;99.90
44229;DHT22;29904;51.058;5.378;2022-10-30T12:39:04;22.80;99.90
44229;DHT22;29904;51.058;5.378;2022-10-30T12:44:53;22.90;99.90
44229;DHT22;29904;51.058;5.378;2022-10-30T12:47:38;23.00;99.90
44229;DHT22;29904;51.058;5.378;2022-10-30T12:50:18;23.00;99.90
44229;DHT22;29904;51.058;5.378;2022-10-30T12:52:49;23.00;99.90
44229;DHT22;29904;51.058;5.378;2022-10-30T12:58:20;22.90;99.90
44229;DHT22;29904;51.058;5.378;2022-10-30T13:01:21;22.80;99.90
44229;DHT22;29904;51.058;5.378;2022-10-30T13:06:48;22.60;99.90
44229;DHT22;29904;51.058;5.378;2022-10-30T13:12:04;22.40;99.90
44229;DHT22;29904;51.058;5.378;2022-10-30T13:14:52;22.40;99.90
44229;DHT22;29904;51.058;5.378;2022-10-30T13:17:20;22.50;99.90
44229;DHT22;29904;51.058;5.378;2022-10-30T13:19:47;22.40;99.90
44229;DHT22;29904;51.058;5.378;2022-10-30T13:27:48;22.60;99.90
44229;DHT22;29904;51.058;5.378;2022-10-30T13:30:20;22.60;99.90
44229;DHT22;29904;51.058;5.378;2022-10-30T13:35:49;22.40;99.90
44229;DHT22;29904;51.058;5.378;2022-10-30T13:38:40;22.40;99.90
44229;DHT22;29904;51.058;5.378;2022-10-30T13:46:22;22.20;99.90
44229;DHT22;29904;51.058;5.378;2022-10-30T13:54:27;22.00;99.90
44229;DHT22;29904;51.058;5.378;2022-10-30T13:56:55;22.00;99.90
44229;DHT22;29904;51.058;5.378;2022-10-30T14:05:41;22.20;99.90
44229;DHT22;29904;51.058;5.378;2022-10-30T14:08:40;22.20;99.90
44229;DHT22;29904;51.058;5.378;2022-10-30T14:11:11;22.30;99.90
44229;DHT22;29904;51.058;5.378;2022-10-30T14:13:44;22.40;99.90
44229;DHT22;29904;51.058;5.378;2022-10-30T14:16:32;22.40;99.90
44229;DHT22;29904;51.058;5.378;2022-10-30T14:19:06;22.50;99.90
44229;DHT22;29904;51.058;5.378;2022-10-30T14:24:42;22.40;99.90
44229;DHT22;29904;51.058;5.378;2022-10-30T14:27:25;22.30;99.90
44229;DHT22;29904;51.058;5.378;2022-10-30T14:29:51;22.20;99.90
44229;DHT22;29904;51.058;5.378;2022-10-30T14:37:17;22.10;99.90
44229;DHT22;29904;51.058;5.378;2022-10-30T14:39:47;22.10;99.90
44229;DHT22;29904;51.058;5.378;2022-10-30T14:58:26;21.60;99.90
44229;DHT22;29904;51.058;5.378;2022-10-30T15:06:20;21.40;99.90
44229;DHT22;29904;51.058;5.378;2022-10-30T15:14:03;21.30;99.90
44229;DHT22;29904;51.058;5.378;2022-10-30T15:16:31;21.20;99.90
44229;DHT22;29904;51.058;5.378;2022-10-30T15:19:04;21.20;99.90
44229;DHT22;29904;51.058;5.378;2022-10-30T15:21:38;21.10;99.90
44229;DHT22;29904;51.058;5.378;2022-10-30T15:24:11;21.00;99.90
44229;DHT22;29904;51.058;5.378;2022-10-30T15:26:38;20.90;99.90
44229;DHT22;29904;51.058;5.378;2022-10-30T15:29:05;20.90;99.90
44229;DHT22;29904;51.058;5.378;2022-10-30T15:31:32;20.80;99.90
44229;DHT22;29904;51.058;5.378;2022-10-30T15:33:57;20.70;99.90
44229;DHT22;29904;51.058;5.378;2022-10-30T15:36:26;20.60;99.90
44229;DHT22;29904;51.058;5.378;2022-10-30T15:39:21;20.50;99.90
44229;DHT22;29904;51.058;5.378;2022-10-30T15:41:59;20.40;99.90
44229;DHT22;29904;51.058;5.378;2022-10-30T15:44:27;20.30;99.90
44229;DHT22;29904;51.058;5.378;2022-10-30T15:46:56;20.20;99.90
44229;DHT22;29904;51.058;5.378;2022-10-30T15:49:33;20.00;99.90
44229;DHT22;29904;51.058;5.378;2022-10-30T15:52:02;20.00;99.90
44229;DHT22;29904;51.058;5.378;2022-10-30T15:54:29;19.90;99.90
44229;DHT22;29904;51.058;5.378;2022-10-30T15:56:57;19.80;99.90
44229;DHT22;29904;51.058;5.378;2022-10-30T15:59:30;19.70;99.90
44229;DHT22;29904;51.058;5.378;2022-10-30T16:01:57;19.60;99.90
44229;DHT22;29904;51.058;5.378;2022-10-30T16:04:26;19.60;99.90
44229;DHT22;29904;51.058;5.378;2022-10-30T16:06:56;19.60;99.90
44229;DHT22;29904;51.058;5.378;2022-10-30T16:09:23;19.50;99.90
44229;DHT22;29904;51.058;5.378;2022-10-30T16:11:51;19.40;99.90
44229;DHT22;29904;51.058;5.378;2022-10-30T16:14:24;19.30;99.90
44229;DHT22;29904;51.058;5.378;2022-10-30T16:16:50;19.30;99.90
44229;DHT22;29904;51.058;5.378;2022-10-30T16:19:25;19.20;99.90
44229;DHT22;29904;51.058;5.378;2022-10-30T16:21:53;19.20;99.90
44229;DHT22;29904;51.058;5.378;2022-10-30T16:24:24;19.10;99.90
44229;DHT22;29904;51.058;5.378;2022-10-30T16:27:22;19.10;99.90
44229;DHT22;29904;51.058;5.378;2022-10-30T16:29:52;19.00;99.90
44229;DHT22;29904;51.058;5.378;2022-10-30T16:32:26;19.00;99.90
44229;DHT22;29904;51.058;5.378;2022-10-30T16:35:00;19.00;99.90
44229;DHT22;29904;51.058;5.378;2022-10-30T16:37:36;19.00;99.90
44229;DHT22;29904;51.058;5.378;2022-10-30T16:40:14;19.00;99.90
44229;DHT22;29904;51.058;5.378;2022-10-30T16:42:40;18.90;99.90
44229;DHT22;29904;51.058;5.378;2022-10-30T16:47:37;18.90;99.90
44229;DHT22;29904;51.058;5.378;2022-10-30T16:50:05;18.90;99.90
44229;DHT22;29904;51.058;5.378;2022-10-30T16:52:34;18.80;99.90
44229;DHT22;29904;51.058;5.378;2022-10-30T16:55:11;18.80;99.90
44229;DHT22;29904;51.058;5.378;2022-10-30T16:57:43;18.80;99.90
44229;DHT22;29904;51.058;5.378;2022-10-30T17:00:22;18.70;99.90
44229;DHT22;29904;51.058;5.378;2022-10-30T17:02:49;18.70;99.90
44229;DHT22;29904;51.058;5.378;2022-10-30T17:05:25;18.70;99.90
44229;DHT22;29904;51.058;5.378;2022-10-30T17:08:06;18.70;99.90
44229;DHT22;29904;51.058;5.378;2022-10-30T17:11:04;18.60;99.90
44229;DHT22;29904;51.058;5.378;2022-10-30T17:13:36;18.60;99.90
44229;DHT22;29904;51.058;5.378;2022-10-30T17:16:20;18.50;99.90
44229;DHT22;29904;51.058;5.378;2022-10-30T17:18:47;18.40;99.90
44229;DHT22;29904;51.058;5.378;2022-10-30T17:21:16;18.40;99.90
44229;DHT22;29904;51.058;5.378;2022-10-30T17:23:47;18.30;99.90
44229;DHT22;29904;51.058;5.378;2022-10-30T17:26:14;18.20;99.90
44229;DHT22;29904;51.058;5.378;2022-10-30T17:28:41;18.20;99.90
44229;DHT22;29904;51.058;5.378;2022-10-30T17:34:14;18.00;99.90
44229;DHT22;29904;51.058;5.378;2022-10-30T17:36:40;18.00;99.90
44229;DHT22;29904;51.058;5.378;2022-10-30T17:39:06;17.90;99.90
44229;DHT22;29904;51.058;5.378;2022-10-30T17:41:33;17.90;99.90
44229;DHT22;29904;51.058;5.378;2022-10-30T17:44:01;17.80;99.90
44229;DHT22;29904;51.058;5.378;2022-10-30T17:46:27;17.70;99.90
44229;DHT22;29904;51.058;5.378;2022-10-30T17:48:53;17.60;99.90
44229;DHT22;29904;51.058;5.378;2022-10-30T17:51:19;17.60;99.90
44229;DHT22;29904;51.058;5.378;2022-10-30T17:53:48;18.20;99.90
44229;DHT22;29904;51.058;5.378;2022-10-30T17:56:32;17.40;99.90
44229;DHT22;29904;51.058;5.378;2022-10-30T17:58:58;17.30;99.90
44229;DHT22;29904;51.058;5.378;2022-10-30T18:01:26;17.30;99.90
44229;DHT22;29904;51.058;5.378;2022-10-30T18:03:53;17.20;99.90
44229;DHT22;29904;51.058;5.378;2022-10-30T18:06:25;17.10;99.90
44229;DHT22;29904;51.058;5.378;2022-10-30T18:08:53;17.00;99.90
44229;DHT22;29904;51.058;5.378;2022-10-30T18:11:22;17.00;99.90
44229;DHT22;29904;51.058;5.378;2022-10-30T18:13:49;16.90;99.90
44229;DHT22;29904;51.058;5.378;2022-10-30T18:16:18;16.90;99.90
44229;DHT22;29904;51.058;5.378;2022-10-30T18:18:44;16.90;99.90
44229;DHT22;29904;51.058;5.378;2022-10-30T18:21:17;16.80;99.90
44229;DHT22;29904;51.058;5.378;2022-10-30T18:23:44;16.70;99.90
44229;DHT22;29904;51.058;5.378;2022-10-30T18:26:17;16.60;99.90
44229;DHT22;29904;51.058;5.378;2022-10-30T18:28:46;16.50;99.90
44229;DHT22;29904;51.058;5.378;2022-10-30T18:31:14;16.50;99.90